Fulton, Maryland
Current Conditions -  °F | °C
As of 9:09 PM on Thursday 18 Dec 2014 (Local Time) from KFME Reporting Station
Overcast Overcast  
Wind Chill: 29°   Ceiling: 9500
Heat Index: 34°   Visibility: 10mi
Dew Point: 25°   Wind: 6mph
Humidity: 70%   Direction: 270°W
Pressure: 30.13"   Gusts: NA
Location:  39.15°N, 76.92°W
Report Text: KFME 190209Z AUTO 27005KT 10SM BKN095 OVC120 01/M04 A3013 RMK AO1
Loading
Personal Weather Stations






























Interactive Weather Map New forecast layout! Learn more

10-Day Weather Forecast

Advertisements
Track Severe Weather on mobile